Time;durP1;ratioP1;P1;durP2;ratioP2;P2;SDS_P1;SDS_P2;PMS_P1;PMS_P2;Temp;Humidity;BMP_temperature;BMP_pressure;BME280_temperature;BME280_humidity;BME280_pressure;Samples;Min_cycle;Max_cycle;Signal;HPM_P1;HPM_P2
2022/05/07 00:01:55;;;;;;;0.10;0.10;;;;;;;;;;6238690;22;20221;-79
2022/05/07 00:04:21;;;;;;;0.10;0.10;;;;;;;;;;6255580;23;20179;-78
2022/05/07 00:06:48;;;;;;;0.10;0.10;;;;;;;;;;6238659;22;20236;-77
2022/05/07 00:09:15;;;;;;;0.10;0.10;;;;;;;;;;6228691;23;20216;-79
2022/05/07 00:11:42;;;;;;;0.10;0.10;;;;;;;;;;6213012;23;20212;-79
2022/05/07 00:14:08;;;;;;;0.10;0.10;;;;;;;;;;6254586;23;20201;-78
2022/05/07 00:19:19;;;;;;;0.10;0.10;;;;;;;;;;6255265;23;20289;-79
2022/05/07 00:21:45;;;;;;;0.10;0.10;;;;;;;;;;6238687;22;20212;-79
2022/05/07 00:24:12;;;;;;;0.10;0.10;;;;;;;;;;6255220;23;20180;-79
2022/05/07 00:26:39;;;;;;;0.10;0.10;;;;;;;;;;6238969;22;20503;-79
2022/05/07 00:29:05;;;;;;;0.03;0.03;;;;;;;;;;6254990;23;20372;-80
2022/05/07 00:31:32;;;;;;;0.10;0.10;;;;;;;;;;6238891;22;20213;-78
2022/05/07 00:33:59;;;;;;;0.10;0.10;;;;;;;;;;6254571;22;20251;-78
2022/05/07 00:36:25;;;;;;;0.10;0.10;;;;;;;;;;6239234;22;20553;-78
2022/05/07 00:38:52;;;;;;;0.10;0.10;;;;;;;;;;6255976;23;20467;-78
2022/05/07 00:41:20;;;;;;;0.10;0.10;;;;;;;;;;6241072;22;20212;-79
2022/05/07 00:43:46;;;;;;;0.57;0.57;;;;;;;;;;6256495;23;20265;-79
2022/05/07 00:46:13;;;;;;;0.10;0.10;;;;;;;;;;6240962;22;20219;-78
2022/05/07 00:48:39;;;;;;;0.10;0.10;;;;;;;;;;6256505;23;20228;-80
2022/05/07 00:53:51;;;;;;;0.10;0.10;;;;;;;;;;6256801;23;20291;-79
2022/05/07 00:56:18;;;;;;;0.10;0.10;;;;;;;;;;6240899;22;20272;-78
2022/05/07 00:58:45;;;;;;;0.10;0.10;;;;;;;;;;6256041;23;20228;-79
2022/05/07 01:01:11;;;;;;;0.10;0.10;;;;;;;;;;6240975;22;20216;-79
2022/05/07 01:03:38;;;;;;;0.10;0.10;;;;;;;;;;6256312;23;20175;-79
2022/05/07 01:06:04;;;;;;;0.10;0.10;;;;;;;;;;6240694;22;20216;-79
2022/05/07 01:08:32;;;;;;;0.10;0.10;;;;;;;;;;6255868;23;20374;-77
2022/05/07 01:10:59;;;;;;;0.10;0.10;;;;;;;;;;6240699;22;20218;-80
2022/05/07 01:13:26;;;;;;;0.00;0.00;;;;;;;;;;6255644;23;20196;-80
2022/05/07 01:15:56;;;;;;;0.10;0.10;;;;;;;;;;6241269;22;20270;-80
2022/05/07 01:18:23;;;;;;;0.10;0.10;;;;;;;;;;6255949;23;20179;-79
2022/05/07 01:20:49;;;;;;;0.10;0.10;;;;;;;;;;6240769;22;20291;-79
2022/05/07 01:23:17;;;;;;;0.10;0.10;;;;;;;;;;6255429;22;20220;-79
2022/05/07 01:25:43;;;;;;;0.10;0.10;;;;;;;;;;6241320;22;20396;-79
2022/05/07 01:28:09;;;;;;;0.00;0.00;;;;;;;;;;6255564;23;20173;-79
2022/05/07 01:30:36;;;;;;;0.30;0.30;;;;;;;;;;6213054;23;20212;-78
2022/05/07 01:33:02;;;;;;;0.10;0.10;;;;;;;;;;6255403;23;20212;-79
2022/05/07 01:35:30;;;;;;;0.03;0.03;;;;;;;;;;6240990;22;20551;-78
2022/05/07 01:37:56;;;;;;;0.10;0.10;;;;;;;;;;6255345;23;20200;-79
2022/05/07 01:40:23;;;;;;;0.10;0.10;;;;;;;;;;6241558;22;20404;-79
2022/05/07 01:42:50;;;;;;;0.10;0.10;;;;;;;;;;6255033;23;20181;-79
2022/05/07 01:45:16;;;;;;;2.10;2.10;;;;;;;;;;6241610;22;20258;-79
2022/05/07 01:50:27;;;;;;;0.00;0.00;;;;;;;;;;6241261;23;20292;-79
2022/05/07 01:52:53;;;;;;;0.10;0.10;;;;;;;;;;6255047;23;20208;-79
2022/05/07 01:55:19;;;;;;;0.10;0.10;;;;;;;;;;6241059;22;20494;-78
2022/05/07 01:57:47;;;;;;;0.10;0.10;;;;;;;;;;6255569;23;20403;-79
2022/05/07 02:00:14;;;;;;;0.10;0.10;;;;;;;;;;6241268;22;20192;-79
2022/05/07 02:02:40;;;;;;;0.00;0.00;;;;;;;;;;6254655;23;20165;-80
2022/05/07 02:05:07;;;;;;;0.10;0.10;;;;;;;;;;6241374;22;20206;-79
2022/05/07 02:07:33;;;;;;;0.10;0.10;;;;;;;;;;6254845;23;20171;-79
2022/05/07 02:09:59;;;;;;;0.10;0.10;;;;;;;;;;6256151;23;20311;-79
2022/05/07 02:12:25;;;;;;;0.10;0.10;;;;;;;;;;6239670;22;20269;-79
2022/05/07 02:14:53;;;;;;;0.10;0.10;;;;;;;;;;6256223;23;20222;-79
2022/05/07 02:17:19;;;;;;;0.10;0.10;;;;;;;;;;6239504;22;20213;-79
2022/05/07 02:19:46;;;;;;;0.30;0.30;;;;;;;;;;6256134;23;20165;-79
2022/05/07 02:22:12;;;;;;;0.10;0.10;;;;;;;;;;6239685;22;20390;-79
2022/05/07 02:24:39;;;;;;;0.10;0.10;;;;;;;;;;6255828;23;20226;-79
2022/05/07 02:27:05;;;;;;;0.10;0.10;;;;;;;;;;6239537;22;20223;-78
2022/05/07 02:29:31;;;;;;;0.10;0.10;;;;;;;;;;6256140;23;20377;-79
2022/05/07 02:32:05;;;;;;;0.10;0.10;;;;;;;;;;6239485;22;20217;-80
2022/05/07 02:34:31;;;;;;;0.10;0.10;;;;;;;;;;6256140;23;20491;-79
2022/05/07 02:36:57;;;;;;;0.10;0.10;;;;;;;;;;6239462;22;20283;-79
2022/05/07 02:39:24;;;;;;;0.10;0.10;;;;;;;;;;6255346;22;20176;-78
2022/05/07 02:44:34;;;;;;;0.10;0.10;;;;;;;;;;6256112;23;20291;-79
2022/05/07 02:47:02;;;;;;;0.10;0.10;;;;;;;;;;6239439;22;20534;-78
2022/05/07 02:49:28;;;;;;;0.10;0.10;;;;;;;;;;6255595;22;20283;-80
2022/05/07 02:51:54;;;;;;;0.10;0.10;;;;;;;;;;6239251;22;20213;-79
2022/05/07 02:54:20;;;;;;;0.10;0.10;;;;;;;;;;6255674;23;20178;-81
2022/05/07 02:56:47;;;;;;;0.10;0.10;;;;;;;;;;6239558;22;20255;-79
2022/05/07 02:59:13;;;;;;;0.20;0.20;;;;;;;;;;6255327;23;20336;-79
2022/05/07 03:01:41;;;;;;;0.10;0.10;;;;;;;;;;6239154;22;20212;-79
2022/05/07 03:04:10;;;;;;;0.10;0.10;;;;;;;;;;6255396;23;20203;-80
2022/05/07 03:06:37;;;;;;;0.10;0.10;;;;;;;;;;6239603;22;20212;-79
2022/05/07 03:09:03;;;;;;;0.10;0.10;;;;;;;;;;6254914;22;20479;-80
2022/05/07 03:11:32;;;;;;;0.00;0.00;;;;;;;;;;6239631;22;20275;-79
2022/05/07 03:13:59;;;;;;;0.10;0.10;;;;;;;;;;6255034;23;20445;-78
2022/05/07 03:16:25;;;;;;;0.10;0.10;;;;;;;;;;6239608;22;20215;-79
2022/05/07 03:18:51;;;;;;;0.10;0.10;;;;;;;;;;6255389;23;20248;-79
2022/05/07 03:21:19;;;;;;;0.10;0.10;;;;;;;;;;6239793;22;20579;-77
2022/05/07 03:23:46;;;;;;;0.10;0.10;;;;;;;;;;6254929;23;20520;-78
2022/05/07 03:26:13;;;;;;;0.10;0.10;;;;;;;;;;6239681;22;20282;-79
2022/05/07 03:28:39;;;;;;;0.03;0.03;;;;;;;;;;6254728;23;20180;-79
2022/05/07 03:31:06;;;;;;;0.10;0.10;;;;;;;;;;6239541;22;20210;-80
2022/05/07 03:33:32;;;;;;;0.10;0.10;;;;;;;;;;6254884;23;20242;-79
2022/05/07 03:35:59;;;;;;;0.00;0.00;;;;;;;;;;6239344;22;20262;-79
2022/05/07 03:38:27;;;;;;;0.10;0.10;;;;;;;;;;6254410;23;20174;-80
2022/05/07 03:40:53;;;;;;;0.00;0.00;;;;;;;;;;6239707;22;20262;-78
2022/05/07 03:43:19;;;;;;;0.10;0.10;;;;;;;;;;6254508;23;20207;-80
2022/05/07 03:45:45;;;;;;;0.10;0.10;;;;;;;;;;6239887;22;20277;-78
2022/05/07 03:48:12;;;;;;;0.10;0.10;;;;;;;;;;6254348;23;20579;-79
2022/05/07 03:50:38;;;;;;;0.00;0.00;;;;;;;;;;6239623;22;20213;-79
2022/05/07 03:55:50;;;;;;;0.10;0.10;;;;;;;;;;6238916;22;20219;-78
2022/05/07 03:58:17;;;;;;;0.00;0.00;;;;;;;;;;6254122;23;20223;-79
2022/05/07 04:00:43;;;;;;;0.00;0.00;;;;;;;;;;6239886;22;20372;-78
2022/05/07 04:03:10;;;;;;;0.10;0.10;;;;;;;;;;6253992;23;20198;-80
2022/05/07 04:05:36;;;;;;;0.00;0.00;;;;;;;;;;6239491;22;20214;-79
2022/05/07 04:08:03;;;;;;;0.00;0.00;;;;;;;;;;6254019;23;20231;-79
2022/05/07 04:10:29;;;;;;;0.07;0.07;;;;;;;;;;6239869;22;20214;-80
2022/05/07 04:12:57;;;;;;;0.10;0.10;;;;;;;;;;6254342;23;20193;-77
2022/05/07 04:15:23;;;;;;;0.10;0.10;;;;;;;;;;6240740;22;20424;-79
2022/05/07 04:17:50;;;;;;;0.33;0.33;;;;;;;;;;6256013;23;20210;-79
2022/05/07 04:20:17;;;;;;;0.10;0.10;;;;;;;;;;6241747;22;20182;-79
2022/05/07 04:22:43;;;;;;;0.10;0.10;;;;;;;;;;6256153;23;20403;-79
2022/05/07 04:25:12;;;;;;;0.10;0.10;;;;;;;;;;6241663;22;20191;-79
2022/05/07 04:27:38;;;;;;;0.10;0.10;;;;;;;;;;6256152;23;20170;-79
2022/05/07 04:30:07;;;;;;;0.00;0.00;;;;;;;;;;6251105;22;20200;-78
2022/05/07 04:32:33;;;;;;;0.10;0.10;;;;;;;;;;6255148;22;20212;-80
2022/05/07 04:34:59;;;;;;;0.10;0.10;;;;;;;;;;6256817;23;20199;-79
2022/05/07 04:37:27;;;;;;;0.10;0.10;;;;;;;;;;6240509;22;20214;-78
2022/05/07 04:39:53;;;;;;;0.03;0.03;;;;;;;;;;6256775;23;20226;-79
2022/05/07 04:42:20;;;;;;;0.10;0.10;;;;;;;;;;6240875;22;20212;-80
2022/05/07 04:44:46;;;;;;;0.10;0.10;;;;;;;;;;6256750;23;20252;-78
2022/05/07 04:47:14;;;;;;;0.10;0.10;;;;;;;;;;6240521;22;20285;-79
2022/05/07 04:49:40;;;;;;;0.10;0.10;;;;;;;;;;6256998;23;20307;-78
2022/05/07 04:52:06;;;;;;;0.00;0.00;;;;;;;;;;6240243;22;20420;-81
2022/05/07 04:54:33;;;;;;;0.10;0.10;;;;;;;;;;6256647;23;20183;-79
2022/05/07 04:56:59;;;;;;;0.10;0.10;;;;;;;;;;6240391;22;20220;-79
2022/05/07 04:59:26;;;;;;;0.10;0.10;;;;;;;;;;6256683;23;20205;-78
2022/05/07 05:01:52;;;;;;;0.10;0.10;;;;;;;;;;6240511;22;20258;-80
2022/05/07 05:04:20;;;;;;;0.20;0.20;;;;;;;;;;6256143;22;20202;-80
2022/05/07 05:06:46;;;;;;;0.10;0.10;;;;;;;;;;6240540;22;20220;-79
2022/05/07 05:09:13;;;;;;;0.10;0.10;;;;;;;;;;6256280;23;20192;-78
2022/05/07 05:11:39;;;;;;;0.10;0.10;;;;;;;;;;6240647;22;20222;-80
2022/05/07 05:15:01;;;;;;;0.00;0.00;;;;;;;;;;6256454;23;20365;-79
2022/05/07 05:16:53;;;;;;;0.10;0.10;;;;;;;;;;6240615;22;20216;-79
2022/05/07 05:19:20;;;;;;;0.00;0.00;;;;;;;;;;6256671;23;20187;-79
2022/05/07 05:21:47;;;;;;;0.00;0.00;;;;;;;;;;6240283;22;20210;-78
2022/05/07 05:24:13;;;;;;;0.10;0.10;;;;;;;;;;6256364;23;20202;-79
2022/05/07 05:26:40;;;;;;;0.10;0.10;;;;;;;;;;6240166;22;20214;-79
2022/05/07 05:29:06;;;;;;;0.10;0.10;;;;;;;;;;6256171;23;20182;-79
2022/05/07 05:31:34;;;;;;;0.10;0.10;;;;;;;;;;6240535;22;20220;-78
2022/05/07 05:34:01;;;;;;;0.10;0.10;;;;;;;;;;6256167;23;20182;-79
2022/05/07 05:36:30;;;;;;;0.10;0.10;;;;;;;;;;6240454;22;20218;-80
2022/05/07 05:38:56;;;;;;;0.10;0.10;;;;;;;;;;6255910;23;20238;-80
2022/05/07 05:41:22;;;;;;;0.10;0.10;;;;;;;;;;6240588;22;20213;-80
2022/05/07 05:43:49;;;;;;;0.10;0.10;;;;;;;;;;6255900;23;20215;-79
2022/05/07 05:46:16;;;;;;;0.00;0.00;;;;;;;;;;6240653;22;20262;-80
2022/05/07 05:48:43;;;;;;;0.10;0.10;;;;;;;;;;6256085;23;20182;-79
2022/05/07 05:51:09;;;;;;;0.10;0.10;;;;;;;;;;6240566;22;20235;-79
2022/05/07 05:53:39;;;;;;;0.10;0.10;;;;;;;;;;6255544;23;20185;-81
2022/05/07 05:56:06;;;;;;;0.03;0.03;;;;;;;;;;6240608;22;20403;-80
2022/05/07 05:58:34;;;;;;;0.10;0.10;;;;;;;;;;6254292;23;20185;-79
2022/05/07 06:01:02;;;;;;;0.10;0.10;;;;;;;;;;6240660;22;20229;-80
2022/05/07 06:03:29;;;;;;;0.00;0.00;;;;;;;;;;6229362;23;20510;-78
2022/05/07 06:05:55;;;;;;;0.03;0.03;;;;;;;;;;6240386;22;20291;-79
2022/05/07 06:08:21;;;;;;;0.10;0.10;;;;;;;;;;6255451;23;20199;-81
2022/05/07 06:10:52;;;;;;;0.00;0.00;;;;;;;;;;6240455;23;20218;-80
2022/05/07 06:13:18;;;;;;;0.07;0.07;;;;;;;;;;6255553;23;20202;-80
2022/05/07 06:15:45;;;;;;;0.10;0.10;;;;;;;;;;6238314;22;20441;-80
2022/05/07 06:18:12;;;;;;;0.07;0.07;;;;;;;;;;6255055;23;20217;-77
2022/05/07 06:20:39;;;;;;;0.10;0.10;;;;;;;;;;6240738;22;20406;-79
2022/05/07 06:23:05;;;;;;;0.10;0.10;;;;;;;;;;6255123;23;20204;-79
2022/05/07 06:28:17;;;;;;;0.10;0.10;;;;;;;;;;6255207;23;20163;-78
2022/05/07 06:30:43;;;;;;;0.10;0.10;;;;;;;;;;6240388;22;20287;-79
2022/05/07 06:33:10;;;;;;;0.10;0.10;;;;;;;;;;6254695;22;20184;-79
2022/05/07 06:35:36;;;;;;;0.10;0.10;;;;;;;;;;6240001;22;20316;-79
2022/05/07 06:38:03;;;;;;;0.10;0.10;;;;;;;;;;6255348;23;20410;-78
2022/05/07 06:40:29;;;;;;;0.00;0.00;;;;;;;;;;6240660;22;20425;-79
2022/05/07 06:42:58;;;;;;;0.10;0.10;;;;;;;;;;6255127;23;20183;-79
2022/05/07 06:45:26;;;;;;;0.00;0.00;;;;;;;;;;6240324;22;20225;-78
2022/05/07 06:47:52;;;;;;;0.08;0.08;;;;;;;;;;6254723;23;20194;-79
2022/05/07 06:50:19;;;;;;;0.00;0.00;;;;;;;;;;6240663;22;20170;-79
2022/05/07 06:52:45;;;;;;;0.10;0.10;;;;;;;;;;6254885;23;20180;-79
2022/05/07 06:55:12;;;;;;;0.10;0.10;;;;;;;;;;6251628;23;20178;-79
2022/05/07 06:57:38;;;;;;;0.10;0.10;;;;;;;;;;6254393;23;20514;-79
2022/05/07 07:00:08;;;;;;;0.10;0.10;;;;;;;;;;6255306;23;20186;-78
2022/05/07 07:02:37;;;;;;;0.10;0.10;;;;;;;;;;6214396;23;20179;-79
2022/05/07 07:05:04;;;;;;;0.10;0.10;;;;;;;;;;6255699;23;20417;-79
2022/05/07 07:07:30;;;;;;;0.03;0.03;;;;;;;;;;6239365;22;20222;-78
2022/05/07 07:09:57;;;;;;;0.10;0.10;;;;;;;;;;6255725;23;20188;-80
2022/05/07 07:12:23;;;;;;;0.05;0.05;;;;;;;;;;6239444;22;20243;-79
2022/05/07 07:14:49;;;;;;;0.10;0.10;;;;;;;;;;6255753;23;20394;-79
2022/05/07 07:17:17;;;;;;;0.10;0.10;;;;;;;;;;6239185;22;20253;-79
2022/05/07 07:19:44;;;;;;;0.05;0.05;;;;;;;;;;6255608;23;20172;-78
2022/05/07 07:22:11;;;;;;;0.10;0.10;;;;;;;;;;6238404;22;20236;-80
2022/05/07 07:24:37;;;;;;;0.10;0.10;;;;;;;;;;6255083;23;20246;-80
2022/05/07 07:27:04;;;;;;;0.08;0.08;;;;;;;;;;6239251;22;20283;-79
2022/05/07 07:29:30;;;;;;;0.10;0.10;;;;;;;;;;6255357;22;20178;-79
2022/05/07 07:31:57;;;;;;;0.10;0.10;;;;;;;;;;6238540;22;20304;-77
2022/05/07 07:34:23;;;;;;;0.10;0.10;;;;;;;;;;6255767;23;20219;-79
2022/05/07 07:36:51;;;;;;;0.05;0.05;;;;;;;;;;6239176;22;20259;-81
2022/05/07 07:39:17;;;;;;;0.10;0.10;;;;;;;;;;6255343;23;20187;-80
2022/05/07 07:41:44;;;;;;;0.08;0.08;;;;;;;;;;6239192;22;20287;-78
2022/05/07 07:44:10;;;;;;;0.10;0.10;;;;;;;;;;6255449;23;20183;-78
2022/05/07 07:49:20;;;;;;;0.00;0.00;;;;;;;;;;6255702;23;20268;-79
2022/05/07 07:51:47;;;;;;;0.10;0.10;;;;;;;;;;6239106;22;20213;-79
2022/05/07 07:54:15;;;;;;;0.00;0.00;;;;;;;;;;6254889;23;20178;-81
2022/05/07 07:56:42;;;;;;;0.10;0.10;;;;;;;;;;6239052;22;20524;-77
2022/05/07 07:59:08;;;;;;;0.00;0.00;;;;;;;;;;6255180;23;20188;-79
2022/05/07 08:01:35;;;;;;;0.10;0.10;;;;;;;;;;6239170;22;20224;-78
2022/05/07 08:04:01;;;;;;;0.00;0.00;;;;;;;;;;6254719;23;20181;-81
2022/05/07 08:06:29;;;;;;;0.03;0.03;;;;;;;;;;6239451;22;20214;-79
2022/05/07 08:11:46;;;;;;;0.00;0.00;;;;;;;;;;6239142;22;20222;-78
2022/05/07 08:14:14;;;;;;;0.00;0.00;;;;;;;;;;6255432;23;20246;-77
2022/05/07 08:16:40;;;;;;;0.00;0.00;;;;;;;;;;6239334;22;20213;-78
2022/05/07 08:19:13;;;;;;;0.00;0.00;;;;;;;;;;6254809;23;20210;-78
2022/05/07 08:21:41;;;;;;;0.10;0.10;;;;;;;;;;6238978;22;20213;-78
2022/05/07 08:24:07;;;;;;;0.10;0.10;;;;;;;;;;6255115;23;20190;-74
2022/05/07 08:26:33;;;;;;;0.00;0.00;;;;;;;;;;6239130;22;20281;-75
2022/05/07 08:29:01;;;;;;;0.08;0.08;;;;;;;;;;6255494;23;20363;-76
2022/05/07 08:31:28;;;;;;;0.05;0.05;;;;;;;;;;6239065;22;20213;-77
2022/05/07 08:33:55;;;;;;;0.00;0.00;;;;;;;;;;6255202;23;20181;-75
2022/05/07 08:36:21;;;;;;;0.08;0.08;;;;;;;;;;6239212;22;20595;-74
2022/05/07 08:38:48;;;;;;;0.00;0.00;;;;;;;;;;6254992;23;20166;-75
2022/05/07 08:41:14;;;;;;;0.10;0.10;;;;;;;;;;6239283;22;20276;-75
2022/05/07 08:43:42;;;;;;;0.00;0.00;;;;;;;;;;6254880;23;20337;-73
2022/05/07 08:46:10;;;;;;;0.00;0.00;;;;;;;;;;6239626;22;20218;-75
2022/05/07 08:48:37;;;;;;;0.00;0.00;;;;;;;;;;6254658;23;20182;-77
2022/05/07 08:51:04;;;;;;;0.08;0.08;;;;;;;;;;6239414;22;20219;-75
2022/05/07 08:53:31;;;;;;;0.00;0.00;;;;;;;;;;6254690;23;20165;-74
2022/05/07 08:55:57;;;;;;;0.10;0.10;;;;;;;;;;6239371;22;20278;-77
2022/05/07 08:58:23;;;;;;;0.08;0.08;;;;;;;;;;6254808;23;20182;-74
2022/05/07 09:00:50;;;;;;;0.10;0.10;;;;;;;;;;6241572;22;20218;-74
2022/05/07 09:03:18;;;;;;;0.00;0.00;;;;;;;;;;6256543;23;20189;-74
2022/05/07 09:05:44;;;;;;;0.00;0.00;;;;;;;;;;6241269;22;20336;-76
2022/05/07 09:08:12;;;;;;;0.10;0.10;;;;;;;;;;6255956;23;20211;-74
2022/05/07 09:10:39;;;;;;;0.10;0.10;;;;;;;;;;6241072;22;20463;-74
2022/05/07 09:13:13;;;;;;;0.00;0.00;;;;;;;;;;6255995;23;20208;-75
2022/05/07 09:15:49;;;;;;;0.00;0.00;;;;;;;;;;6241252;22;20230;-75
2022/05/07 09:18:15;;;;;;;0.10;0.10;;;;;;;;;;6255940;23;20183;-73
2022/05/07 09:20:43;;;;;;;0.00;0.00;;;;;;;;;;6241694;22;20218;-75
2022/05/07 09:23:10;;;;;;;0.10;0.10;;;;;;;;;;6255820;23;20243;-75
2022/05/07 09:25:44;;;;;;;0.08;0.08;;;;;;;;;;6241256;22;20219;-76
2022/05/07 09:28:10;;;;;;;0.00;0.00;;;;;;;;;;6255990;23;20181;-76
2022/05/07 09:30:38;;;;;;;0.00;0.00;;;;;;;;;;6241338;22;20273;-77
2022/05/07 09:33:06;;;;;;;0.10;0.10;;;;;;;;;;6255442;23;20405;-76
2022/05/07 09:35:50;;;;;;;0.10;0.10;;;;;;;;;;6241651;22;20416;-74
2022/05/07 09:38:23;;;;;;;0.10;0.10;;;;;;;;;;6255768;23;20541;-75
2022/05/07 09:40:50;;;;;;;0.00;0.00;;;;;;;;;;6241200;22;20461;-74
2022/05/07 09:43:17;;;;;;;0.10;0.10;;;;;;;;;;6255756;23;20397;-75
2022/05/07 09:45:45;;;;;;;0.00;0.00;;;;;;;;;;6240878;22;20454;-75
2022/05/07 09:48:12;;;;;;;0.00;0.00;;;;;;;;;;6255577;23;20206;-74
2022/05/07 09:50:47;;;;;;;0.00;0.00;;;;;;;;;;6241018;22;20214;-75
2022/05/07 09:58:44;;;;;;;0.00;0.00;;;;;;;;;;6255875;23;20359;-74
2022/05/07 10:01:27;;;;;;;0.00;0.00;;;;;;;;;;6240678;22;20215;-75
2022/05/07 10:03:57;;;;;;;0.00;0.00;;;;;;;;;;6255719;23;20187;-74
2022/05/07 10:06:28;;;;;;;0.00;0.00;;;;;;;;;;6240153;22;20234;-74
2022/05/07 10:09:02;;;;;;;0.00;0.00;;;;;;;;;;6255932;23;20184;-74
2022/05/07 10:11:30;;;;;;;0.00;0.00;;;;;;;;;;6240227;22;20211;-74
2022/05/07 10:13:57;;;;;;;0.00;0.00;;;;;;;;;;6255671;22;20183;-74
2022/05/07 10:16:23;;;;;;;0.00;0.00;;;;;;;;;;6214213;23;20211;-75
2022/05/07 10:18:50;;;;;;;0.00;0.00;;;;;;;;;;6255674;23;20222;-75
2022/05/07 10:21:16;;;;;;;0.00;0.00;;;;;;;;;;6240520;22;20260;-75
2022/05/07 10:23:50;;;;;;;0.00;0.00;;;;;;;;;;6255866;23;20226;-74
2022/05/07 10:26:16;;;;;;;0.00;0.00;;;;;;;;;;6240227;22;20395;-75
2022/05/07 10:28:44;;;;;;;0.00;0.00;;;;;;;;;;6255387;23;20214;-74
2022/05/07 10:31:17;;;;;;;0.00;0.00;;;;;;;;;;6240349;22;20214;-74
2022/05/07 10:33:43;;;;;;;0.00;0.00;;;;;;;;;;6255725;23;20234;-74
2022/05/07 10:36:10;;;;;;;0.00;0.00;;;;;;;;;;6239845;22;20211;-74
2022/05/07 10:38:37;;;;;;;0.00;0.00;;;;;;;;;;6255362;23;20249;-74
2022/05/07 10:41:04;;;;;;;0.00;0.00;;;;;;;;;;6239799;22;20211;-74
2022/05/07 10:43:32;;;;;;;0.00;0.00;;;;;;;;;;6254975;23;20176;-75
2022/05/07 10:46:04;;;;;;;0.00;0.00;;;;;;;;;;6239747;22;20513;-74
2022/05/07 10:48:30;;;;;;;0.00;0.00;;;;;;;;;;6255302;23;20172;-74
2022/05/07 10:51:00;;;;;;;0.00;0.00;;;;;;;;;;6239956;22;20263;-75
2022/05/07 10:53:35;;;;;;;0.00;0.00;;;;;;;;;;6254854;23;20176;-75
2022/05/07 10:56:01;;;;;;;0.00;0.00;;;;;;;;;;6239889;22;20237;-75
2022/05/07 10:58:29;;;;;;;0.08;0.08;;;;;;;;;;6255203;23;20184;-74
2022/05/07 11:00:57;;;;;;;0.00;0.00;;;;;;;;;;6239868;22;20306;-75
2022/05/07 11:03:28;;;;;;;0.00;0.00;;;;;;;;;;6254639;23;20358;-75
2022/05/07 11:05:59;;;;;;;0.00;0.00;;;;;;;;;;6239726;22;20211;-75
2022/05/07 11:08:29;;;;;;;0.00;0.00;;;;;;;;;;6255106;23;20187;-76
2022/05/07 11:11:03;;;;;;;0.00;0.00;;;;;;;;;;6239937;22;20250;-75
2022/05/07 11:13:29;;;;;;;0.00;0.00;;;;;;;;;;6255324;23;20183;-74
2022/05/07 11:16:03;;;;;;;0.00;0.00;;;;;;;;;;6240238;22;20281;-74
2022/05/07 11:18:32;;;;;;;0.00;0.00;;;;;;;;;;6254899;23;20184;-74
2022/05/07 11:21:02;;;;;;;0.00;0.00;;;;;;;;;;6240095;22;20218;-74
2022/05/07 11:23:29;;;;;;;0.00;0.00;;;;;;;;;;6255050;23;20183;-75
2022/05/07 11:25:55;;;;;;;0.00;0.00;;;;;;;;;;6239802;22;20211;-75
2022/05/07 11:28:21;;;;;;;0.00;0.00;;;;;;;;;;6254699;23;20225;-76
2022/05/07 11:30:51;;;;;;;0.00;0.00;;;;;;;;;;6239751;22;20227;-76
2022/05/07 11:33:23;;;;;;;0.00;0.00;;;;;;;;;;6254656;23;20187;-75
2022/05/07 11:36:00;;;;;;;0.10;0.10;;;;;;;;;;6240483;22;20207;-75
2022/05/07 11:38:27;;;;;;;0.00;0.00;;;;;;;;;;6254778;23;20187;-75
2022/05/07 11:40:53;;;;;;;0.00;0.00;;;;;;;;;;6239875;22;20211;-77
2022/05/07 11:46:07;;;;;;;0.00;0.00;;;;;;;;;;6239805;22;20573;-75
2022/05/07 11:48:33;;;;;;;0.00;0.00;;;;;;;;;;6254841;23;20214;-74
2022/05/07 11:51:01;;;;;;;0.00;0.00;;;;;;;;;;6239784;22;20241;-76
2022/05/07 11:53:28;;;;;;;0.03;0.03;;;;;;;;;;6254720;23;20174;-75
2022/05/07 11:56:05;;;;;;;0.00;0.00;;;;;;;;;;6239856;22;20217;-74
2022/05/07 11:58:38;;;;;;;0.00;0.00;;;;;;;;;;6254973;23;20203;-74
2022/05/07 12:01:06;;;;;;;0.00;0.00;;;;;;;;;;6239477;22;20214;-75
2022/05/07 12:03:32;;;;;;;0.00;0.00;;;;;;;;;;6254527;23;20194;-77
2022/05/07 12:05:58;;;;;;;0.10;0.10;;;;;;;;;;6239802;22;20256;-75
2022/05/07 12:08:32;;;;;;;0.10;0.10;;;;;;;;;;6254412;23;20225;-75
2022/05/07 12:10:58;;;;;;;0.00;0.00;;;;;;;;;;6239533;22;20230;-74
2022/05/07 12:13:25;;;;;;;0.00;0.00;;;;;;;;;;6254695;23;20183;-76
2022/05/07 12:18:36;;;;;;;0.00;0.00;;;;;;;;;;6254605;23;20162;-76
2022/05/07 12:21:02;;;;;;;0.00;0.00;;;;;;;;;;6239578;22;20214;-76
2022/05/07 12:32:00;;;;;;;0.10;0.10;;;;;;;;;;6218961;23;20244;-75
2022/05/07 12:34:27;;;;;;;0.00;0.00;;;;;;;;;;6256090;23;20183;-75
2022/05/07 12:36:53;;;;;;;0.00;0.00;;;;;;;;;;6240889;22;20529;-75
2022/05/07 12:39:21;;;;;;;0.00;0.00;;;;;;;;;;6257076;23;20192;-75
2022/05/07 12:41:48;;;;;;;0.00;0.00;;;;;;;;;;6240728;22;20217;-75
2022/05/07 12:44:14;;;;;;;0.00;0.00;;;;;;;;;;6256733;23;20183;-75
2022/05/07 12:46:41;;;;;;;0.00;0.00;;;;;;;;;;6240887;22;20210;-75
2022/05/07 12:49:08;;;;;;;0.00;0.00;;;;;;;;;;6257089;23;20210;-74
2022/05/07 12:51:35;;;;;;;0.00;0.00;;;;;;;;;;6241010;22;20443;-74
2022/05/07 12:54:03;;;;;;;0.00;0.00;;;;;;;;;;6256804;23;20399;-74
2022/05/07 12:56:31;;;;;;;0.10;0.10;;;;;;;;;;6240714;22;20253;-75
2022/05/07 12:58:57;;;;;;;0.00;0.00;;;;;;;;;;6256813;23;20183;-74
2022/05/07 13:01:24;;;;;;;0.00;0.00;;;;;;;;;;6241111;22;20211;-74
2022/05/07 13:03:50;;;;;;;0.00;0.00;;;;;;;;;;6256554;23;20180;-74
2022/05/07 13:06:16;;;;;;;0.00;0.00;;;;;;;;;;6241154;22;20227;-76
2022/05/07 13:08:43;;;;;;;0.00;0.00;;;;;;;;;;6256495;23;20179;-75
2022/05/07 13:11:09;;;;;;;0.00;0.00;;;;;;;;;;6241087;22;20215;-74
2022/05/07 13:13:36;;;;;;;0.00;0.00;;;;;;;;;;6255801;23;20183;-73
2022/05/07 13:16:03;;;;;;;0.00;0.00;;;;;;;;;;6241026;22;20254;-75
2022/05/07 13:18:35;;;;;;;0.00;0.00;;;;;;;;;;6256316;23;20412;-74
2022/05/07 13:21:01;;;;;;;0.00;0.00;;;;;;;;;;6241109;22;20408;-76
2022/05/07 13:23:27;;;;;;;0.00;0.00;;;;;;;;;;6256270;23;20186;-75
2022/05/07 13:25:53;;;;;;;0.00;0.00;;;;;;;;;;6240814;22;20215;-74
2022/05/07 13:28:19;;;;;;;0.00;0.00;;;;;;;;;;6255825;23;20203;-74
2022/05/07 13:30:47;;;;;;;0.00;0.00;;;;;;;;;;6241323;22;20612;-75
2022/05/07 13:33:14;;;;;;;0.00;0.00;;;;;;;;;;6255457;22;20183;-75
2022/05/07 13:35:40;;;;;;;0.00;0.00;;;;;;;;;;6241337;22;20573;-75
2022/05/07 13:38:07;;;;;;;0.00;0.00;;;;;;;;;;6255880;23;20176;-75
2022/05/07 13:40:33;;;;;;;0.00;0.00;;;;;;;;;;6240955;22;20211;-76
2022/05/07 13:43:01;;;;;;;0.00;0.00;;;;;;;;;;6255755;23;20376;-75
2022/05/07 13:45:27;;;;;;;0.00;0.00;;;;;;;;;;6240879;22;20215;-75
2022/05/07 13:47:55;;;;;;;0.00;0.00;;;;;;;;;;6255515;23;20557;-74
2022/05/07 13:50:22;;;;;;;0.00;0.00;;;;;;;;;;6241389;22;20226;-75
2022/05/07 13:52:48;;;;;;;0.00;0.00;;;;;;;;;;6255242;23;20171;-75
2022/05/07 13:55:14;;;;;;;0.00;0.00;;;;;;;;;;6241555;22;20505;-74
2022/05/07 13:57:41;;;;;;;0.00;0.00;;;;;;;;;;6255384;23;20198;-75
2022/05/07 14:00:08;;;;;;;0.10;0.10;;;;;;;;;;6241610;22;20255;-73
2022/05/07 14:02:36;;;;;;;0.00;0.00;;;;;;;;;;6255343;23;20168;-75
2022/05/07 14:05:05;;;;;;;0.00;0.00;;;;;;;;;;6256434;23;20180;-76
2022/05/07 14:07:31;;;;;;;0.00;0.00;;;;;;;;;;6214444;23;20253;-75
2022/05/07 14:09:58;;;;;;;0.00;0.00;;;;;;;;;;6256170;23;20249;-76
2022/05/07 14:12:24;;;;;;;0.00;0.00;;;;;;;;;;6240055;22;20332;-74
2022/05/07 14:14:50;;;;;;;0.10;0.10;;;;;;;;;;6255641;23;20179;-75
2022/05/07 14:17:17;;;;;;;0.00;0.00;;;;;;;;;;6239502;22;20207;-74
2022/05/07 14:19:44;;;;;;;0.00;0.00;;;;;;;;;;6256133;23;20208;-75
2022/05/07 14:22:12;;;;;;;0.00;0.00;;;;;;;;;;6239673;22;20257;-73
2022/05/07 14:24:39;;;;;;;0.00;0.00;;;;;;;;;;6255856;23;20188;-74
2022/05/07 14:27:05;;;;;;;0.00;0.00;;;;;;;;;;6239604;22;20258;-75
2022/05/07 14:29:31;;;;;;;0.00;0.00;;;;;;;;;;6256521;23;20205;-75
2022/05/07 14:31:59;;;;;;;0.00;0.00;;;;;;;;;;6239502;22;20211;-74
2022/05/07 14:34:25;;;;;;;0.00;0.00;;;;;;;;;;6256302;23;20269;-74
2022/05/07 14:36:51;;;;;;;0.08;0.08;;;;;;;;;;6239782;22;20214;-77
2022/05/07 14:39:19;;;;;;;0.00;0.00;;;;;;;;;;6256192;23;20179;-74
2022/05/07 14:41:45;;;;;;;0.05;0.05;;;;;;;;;;6239433;22;20241;-75
2022/05/07 14:44:12;;;;;;;0.00;0.00;;;;;;;;;;6255858;23;20193;-74
2022/05/07 14:46:40;;;;;;;0.10;0.10;;;;;;;;;;6239784;22;20207;-75
2022/05/07 14:49:06;;;;;;;0.00;0.00;;;;;;;;;;6254843;23;20206;-75
2022/05/07 14:51:32;;;;;;;0.00;0.00;;;;;;;;;;6239489;22;20211;-75
2022/05/07 14:53:59;;;;;;;0.00;0.00;;;;;;;;;;6255514;23;20189;-74
2022/05/07 14:56:27;;;;;;;0.00;0.00;;;;;;;;;;6239413;22;20213;-74
2022/05/07 14:58:54;;;;;;;0.03;0.03;;;;;;;;;;6255346;23;20179;-74
2022/05/07 15:01:21;;;;;;;0.00;0.00;;;;;;;;;;6239714;22;20211;-74
2022/05/07 15:03:47;;;;;;;0.00;0.00;;;;;;;;;;6255435;23;20422;-75
2022/05/07 15:06:13;;;;;;;0.00;0.00;;;;;;;;;;6239486;22;20389;-74
2022/05/07 15:11:23;;;;;;;0.00;0.00;;;;;;;;;;6239959;22;20243;-75
2022/05/07 15:13:51;;;;;;;0.00;0.00;;;;;;;;;;6255222;23;20186;-74
2022/05/07 15:16:18;;;;;;;0.00;0.00;;;;;;;;;;6239598;22;20421;-75
2022/05/07 15:18:44;;;;;;;0.00;0.00;;;;;;;;;;6254754;22;20178;-74
2022/05/07 15:21:12;;;;;;;0.10;0.10;;;;;;;;;;6239380;22;20556;-74
2022/05/07 15:23:38;;;;;;;0.00;0.00;;;;;;;;;;6255075;23;20252;-76
2022/05/07 15:26:04;;;;;;;0.10;0.10;;;;;;;;;;6239315;22;20214;-76
2022/05/07 15:28:31;;;;;;;0.00;0.00;;;;;;;;;;6254939;23;20201;-75